Time;durP1;ratioP1;P1;durP2;ratioP2;P2;SDS_P1;SDS_P2;PMS_P1;PMS_P2;Temp;Humidity;BMP_temperature;BMP_pressure;BME280_temperature;BME280_humidity;BME280_pressure;Samples;Min_cycle;Max_cycle;Signal;HPM_P1;HPM_P2
2021/05/25 00:02:07;;;;;;;10.93;2.95;;;;;;;8.92;87.04;101051.75;5008694;28;20472;-85
2021/05/25 00:04:33;;;;;;;13.90;3.17;;;;;;;8.91;86.64;101058.94;5012810;28;20034;-85
2021/05/25 00:06:58;;;;;;;13.15;2.83;;;;;;;9.06;86.76;101083.34;5012471;28;20033;-84
2021/05/25 00:09:23;;;;;;;15.27;2.90;;;;;;;9.06;87.13;101079.84;5025865;28;20030;-85
2021/05/25 00:11:49;;;;;;;14.10;2.40;;;;;;;9.07;87.23;101087.69;5009375;28;20033;-84
2021/05/25 00:14:19;;;;;;;8.40;2.40;;;;;;;9.14;87.31;101095.97;5009142;28;20088;-84
2021/05/25 00:16:46;;;;;;;13.38;2.70;;;;;;;9.17;87.16;101084.94;5008959;28;20554;-85
2021/05/25 00:19:12;;;;;;;9.88;2.83;;;;;;;9.20;87.34;101089.97;5023085;28;20392;-84
2021/05/25 00:21:37;;;;;;;15.30;2.75;;;;;;;9.18;86.96;101090.16;5009650;28;20022;-84
2021/05/25 00:24:03;;;;;;;10.27;2.75;;;;;;;9.31;86.96;101105.78;4993395;28;20579;-85
2021/05/25 00:26:28;;;;;;;9.32;2.40;;;;;;;9.27;86.28;101098.25;5008353;28;20030;-85
2021/05/25 00:28:54;;;;;;;10.38;3.00;;;;;;;9.32;86.08;101112.84;5008654;28;20018;-85
2021/05/25 00:31:19;;;;;;;8.85;2.42;;;;;;;9.30;86.39;101105.97;5008733;28;20099;-85
2021/05/25 00:33:45;;;;;;;9.25;2.75;;;;;;;9.39;86.15;101118.41;5005323;28;20042;-84
2021/05/25 00:36:11;;;;;;;11.60;2.50;;;;;;;9.36;86.33;101110.69;4988578;28;20034;-85
2021/05/25 00:38:37;;;;;;;11.00;2.72;;;;;;;9.44;86.21;101127.66;5008110;28;20021;-85
2021/05/25 00:41:03;;;;;;;11.15;2.53;;;;;;;9.42;86.13;101120.78;5008552;28;20029;-84
2021/05/25 00:43:29;;;;;;;13.52;3.67;;;;;;;9.46;86.15;101123.00;5008480;28;20068;-85
2021/05/25 00:45:55;;;;;;;14.43;4.35;;;;;;;9.31;86.17;101094.22;5009983;28;20113;-85
2021/05/25 00:48:20;;;;;;;13.32;4.65;;;;;;;9.35;86.42;101111.69;5009726;28;20026;-85
2021/05/25 00:50:46;;;;;;;13.32;4.35;;;;;;;9.45;86.69;101129.38;5014424;28;20739;-84
2021/05/25 00:53:11;;;;;;;21.10;3.45;;;;;;;9.47;86.73;101126.50;5011567;28;20028;-84
2021/05/25 00:55:39;;;;;;;18.35;4.97;;;;;;;9.51;86.94;101127.88;5008491;28;20033;-84
2021/05/25 00:58:07;;;;;;;13.77;4.18;;;;;;;9.51;86.84;101125.19;5004400;28;20120;-84
2021/05/25 01:00:41;;;;;;;19.25;4.03;;;;;;;9.54;86.81;101132.09;5024113;28;20013;-84
2021/05/25 01:03:07;;;;;;;;;;;;;;;9.56;87.22;101141.66;5009285;28;20030;-84
2021/05/25 01:05:32;;;;;;;28.00;4.63;;;;;;;9.56;86.81;101140.84;5003101;28;20016;-84
2021/05/25 01:07:58;;;;;;;21.52;4.60;;;;;;;9.53;86.68;101131.25;4994113;28;20026;-85
2021/05/25 01:10:34;;;;;;;23.52;4.80;;;;;;;9.51;86.84;101130.56;5008395;28;20029;-85
2021/05/25 01:13:07;;;;;;;18.38;5.60;;;;;;;9.56;86.84;101132.78;5007650;28;20025;-85
2021/05/25 01:15:32;;;;;;;21.30;4.10;;;;;;;9.53;86.77;101123.22;5024458;28;20997;-84
2021/05/25 01:17:59;;;;;;;15.95;3.95;;;;;;;9.57;86.46;101139.81;5007849;28;20113;-84
2021/05/25 01:20:28;;;;;;;15.50;4.82;;;;;;;9.56;86.72;101141.66;4989716;28;20038;-84
2021/05/25 01:22:54;;;;;;;28.35;4.95;;;;;;;9.48;86.98;101132.75;4994648;28;20058;-84
2021/05/25 01:25:20;;;;;;;15.65;4.13;;;;;;;9.41;86.65;101130.69;5008310;28;20077;-84
2021/05/25 01:27:54;;;;;;;22.75;5.38;;;;;;;9.53;87.09;101152.72;5007079;28;20072;-85
2021/05/25 01:30:21;;;;;;;20.73;5.97;;;;;;;9.54;86.91;101156.25;5025581;28;20037;-85
2021/05/25 01:32:47;;;;;;;20.40;4.55;;;;;;;9.49;86.63;101162.09;5010820;28;20021;-86
2021/05/25 01:35:13;;;;;;;24.10;5.50;;;;;;;9.50;86.77;101161.13;4999570;28;20045;-85
2021/05/25 01:37:38;;;;;;;20.02;4.68;;;;;;;9.43;87.36;101154.69;5012289;28;20515;-85
2021/05/25 01:40:04;;;;;;;21.55;4.93;;;;;;;9.42;87.34;101163.72;5006341;28;20689;-84
2021/05/25 01:42:32;;;;;;;27.38;5.93;;;;;;;9.44;87.30;101162.56;5013122;28;20025;-84
2021/05/25 01:44:58;;;;;;;20.02;5.93;;;;;;;9.38;87.77;101159.69;5005396;28;20038;-85
2021/05/25 01:47:24;;;;;;;20.85;4.68;;;;;;;9.36;87.76;101156.31;5028432;28;20062;-85
2021/05/25 01:49:49;;;;;;;14.85;4.10;;;;;;;9.36;87.39;101162.50;5011347;28;20049;-84
2021/05/25 01:52:17;;;;;;;20.83;5.30;;;;;;;9.33;87.51;101149.41;5027743;28;20037;-85
2021/05/25 01:54:42;;;;;;;16.48;4.05;;;;;;;9.39;87.31;101162.22;5018058;28;20018;-84
2021/05/25 01:57:08;;;;;;;23.17;5.10;;;;;;;9.38;86.84;101163.22;5007633;28;20104;-85
2021/05/25 01:59:34;;;;;;;24.63;4.93;;;;;;;9.35;87.31;101168.06;5012458;28;20037;-84
2021/05/25 02:01:59;;;;;;;25.17;5.00;;;;;;;9.28;87.24;101161.63;5008021;28;20457;-86
2021/05/25 02:04:25;;;;;;;19.75;4.78;;;;;;;9.27;87.07;101157.28;5027064;28;20030;-85
2021/05/25 02:06:51;;;;;;;19.52;4.50;;;;;;;9.19;86.97;101161.56;5012711;28;20026;-84
2021/05/25 02:09:17;;;;;;;23.67;4.85;;;;;;;9.12;87.12;101163.19;5010354;28;20028;-84
2021/05/25 02:11:42;;;;;;;17.02;4.13;;;;;;;9.09;86.94;101170.72;5011120;28;20030;-85
2021/05/25 02:14:08;;;;;;;17.92;4.22;;;;;;;8.85;87.22;101142.69;5009594;28;20992;-84
2021/05/25 02:16:33;;;;;;;18.92;4.03;;;;;;;9.06;87.04;101171.03;5011206;28;20018;-85
2021/05/25 02:18:58;;;;;;;20.75;4.13;;;;;;;9.12;86.71;101184.66;5012847;28;20038;-85
2021/05/25 02:21:24;;;;;;;13.38;3.92;;;;;;;9.05;87.30;101178.25;5011851;28;20026;-84
2021/05/25 02:23:50;;;;;;;25.60;4.80;;;;;;;9.11;86.97;101190.19;5010125;28;20026;-86
2021/05/25 02:26:15;;;;;;;23.23;4.35;;;;;;;9.05;86.77;101180.94;5010490;28;20025;-84
2021/05/25 02:28:41;;;;;;;14.80;4.90;;;;;;;9.07;86.96;101186.13;5007296;28;20022;-84
2021/05/25 02:31:07;;;;;;;21.25;4.47;;;;;;;9.02;87.11;101179.41;5026572;28;20029;-84
2021/05/25 02:33:33;;;;;;;15.55;4.20;;;;;;;9.07;86.52;101189.63;5012896;28;20536;-85
2021/05/25 02:35:59;;;;;;;14.43;4.10;;;;;;;9.05;86.72;101186.28;5011532;28;20087;-84
2021/05/25 02:38:27;;;;;;;19.77;4.18;;;;;;;8.76;86.11;101139.13;5013090;28;20485;-85
2021/05/25 02:40:52;;;;;;;28.02;4.72;;;;;;;8.82;86.66;101147.53;5011408;28;20544;-84
2021/05/25 02:43:21;;;;;;;18.13;4.68;;;;;;;8.97;86.96;101181.69;5012443;28;20036;-85
2021/05/25 02:45:47;;;;;;;24.17;5.00;;;;;;;8.93;87.09;101180.31;5012513;28;20018;-86
2021/05/25 02:48:13;;;;;;;14.30;4.10;;;;;;;8.57;86.60;101128.53;5012013;28;20413;-85
2021/05/25 02:50:39;;;;;;;20.15;4.65;;;;;;;8.87;86.51;101178.25;5011252;28;20056;-84
2021/05/25 02:53:05;;;;;;;17.50;4.35;;;;;;;8.74;86.50;101161.72;4994454;28;20469;-85
2021/05/25 02:55:35;;;;;;;26.58;4.18;;;;;;;8.85;86.83;101185.59;5015992;28;20017;-85
2021/05/25 02:58:03;;;;;;;16.85;3.75;;;;;;;8.83;86.34;101176.03;4993656;28;20408;-85
2021/05/25 03:00:31;;;;;;;20.02;4.78;;;;;;;8.88;86.30;101184.47;4993602;28;20093;-84
2021/05/25 03:02:57;;;;;;;18.38;3.83;;;;;;;8.78;86.21;101177.31;5013650;28;20109;-85
2021/05/25 03:05:24;;;;;;;23.90;5.38;;;;;;;8.80;86.19;101187.91;5014087;28;20120;-84
2021/05/25 03:07:51;;;;;;;23.13;4.40;;;;;;;8.59;86.35;101162.25;5014390;28;20079;-84
2021/05/25 03:10:19;;;;;;;22.35;5.22;;;;;;;8.85;86.29;101196.34;5017049;28;20029;-86
2021/05/25 03:12:45;;;;;;;18.48;4.45;;;;;;;8.82;86.32;101190.44;5016293;28;20468;-85
2021/05/25 03:15:14;;;;;;;15.90;5.03;;;;;;;8.81;85.91;101200.31;5010789;28;20018;-85
2021/05/25 03:17:40;;;;;;;15.52;3.92;;;;;;;8.68;86.34;101170.34;5015430;28;20033;-85
2021/05/25 03:20:08;;;;;;;16.35;4.95;;;;;;;8.78;86.05;101193.41;5019925;28;20433;-85
2021/05/25 03:22:34;;;;;;;18.85;3.83;;;;;;;8.79;86.13;101203.16;5000764;28;20018;-83
2021/05/25 03:24:59;;;;;;;19.10;5.32;;;;;;;8.63;86.06;101170.84;5015502;28;20025;-84
2021/05/25 03:27:25;;;;;;;13.93;4.10;;;;;;;8.73;86.25;101187.69;5011580;28;20034;-86
2021/05/25 03:29:51;;;;;;;15.77;4.10;;;;;;;8.68;86.64;101184.63;4996666;28;20017;-84
2021/05/25 03:32:16;;;;;;;21.40;4.07;;;;;;;8.69;86.70;101190.81;5010861;28;20515;-85
2021/05/25 03:34:42;;;;;;;17.05;4.45;;;;;;;8.53;86.58;101162.84;5011543;28;20014;-84
2021/05/25 03:37:07;;;;;;;15.70;3.60;;;;;;;8.53;86.55;101167.38;5005349;28;20370;-85
2021/05/25 03:39:33;;;;;;;23.48;4.55;;;;;;;8.54;86.79;101169.06;5013655;28;20021;-85
2021/05/25 03:41:59;;;;;;;19.45;4.50;;;;;;;8.68;87.03;101192.66;5010276;28;20547;-84
2021/05/25 03:44:26;;;;;;;17.38;4.20;;;;;;;8.75;86.91;101201.75;5015276;28;20048;-84
2021/05/25 03:46:51;;;;;;;14.20;3.70;;;;;;;8.69;86.57;101190.81;5015048;28;20104;-84
2021/05/25 03:49:17;;;;;;;16.48;4.18;;;;;;;8.71;86.72;101203.09;5002438;28;20049;-85
2021/05/25 03:51:43;;;;;;;15.98;4.30;;;;;;;8.51;86.35;101166.69;5013604;28;20029;-85
2021/05/25 03:54:13;;;;;;;15.73;3.95;;;;;;;8.63;86.36;101186.91;5012870;28;20036;-85
2021/05/25 03:56:49;;;;;;;14.85;3.95;;;;;;;8.67;86.11;101193.66;5018408;28;20108;-84
2021/05/25 03:59:15;;;;;;;24.60;5.07;;;;;;;8.58;86.24;101182.00;5017518;28;20056;-84
2021/05/25 04:01:40;;;;;;;21.20;4.57;;;;;;;8.66;86.17;101197.34;5010232;28;20072;-85
2021/05/25 04:04:06;;;;;;;19.80;4.78;;;;;;;8.66;86.08;101202.69;5019405;28;20076;-84
2021/05/25 04:06:31;;;;;;;25.33;5.35;;;;;;;8.69;85.84;101202.38;5010541;28;20028;-85
2021/05/25 04:08:56;;;;;;;25.33;5.25;;;;;;;8.62;85.77;101187.91;5005261;28;20468;-84
2021/05/25 04:11:22;;;;;;;20.63;4.05;;;;;;;8.65;85.80;101190.28;5012636;28;20105;-85
2021/05/25 04:13:47;;;;;;;15.30;4.22;;;;;;;8.48;85.89;101161.63;5014385;28;20029;-85
2021/05/25 04:16:13;;;;;;;20.17;4.97;;;;;;;8.71;85.48;101199.56;5013751;28;20104;-84
2021/05/25 04:18:43;;;;;;;17.77;4.38;;;;;;;8.71;85.47;101197.72;4998203;28;20026;-85
2021/05/25 04:21:09;;;;;;;22.73;5.15;;;;;;;8.72;84.69;101196.72;5010603;28;20025;-85
2021/05/25 04:23:35;;;;;;;16.30;4.32;;;;;;;8.68;85.18;101191.81;4994970;28;20044;-84
2021/05/25 04:26:01;;;;;;;13.63;3.65;;;;;;;8.68;84.77;101192.66;5003924;28;20088;-84
2021/05/25 04:28:26;;;;;;;24.50;4.43;;;;;;;8.77;84.64;101207.00;5014498;28;20018;-84
2021/05/25 04:30:52;;;;;;;17.15;4.20;;;;;;;8.75;84.31;101195.56;5022048;28;20052;-84
2021/05/25 04:33:17;;;;;;;21.23;4.60;;;;;;;8.75;83.96;101201.75;5010839;28;20029;-85
2021/05/25 04:35:43;;;;;;;26.63;5.00;;;;;;;8.76;84.21;101203.47;5011854;28;20018;-84
2021/05/25 04:38:09;;;;;;;13.98;4.07;;;;;;;8.74;84.55;101194.72;5004910;28;20025;-85
2021/05/25 04:40:35;;;;;;;10.35;4.30;;;;;;;8.76;84.08;101191.91;5016512;28;20025;-84
2021/05/25 04:43:03;;;;;;;14.77;4.57;;;;;;;8.76;84.06;101190.06;5013239;28;20543;-85
2021/05/25 04:45:28;;;;;;;19.17;4.47;;;;;;;8.82;84.16;101195.81;5022935;28;20022;-86
2021/05/25 04:47:54;;;;;;;17.63;4.28;;;;;;;8.65;84.18;101173.34;5017140;28;20559;-85
2021/05/25 04:50:20;;;;;;;14.48;4.65;;;;;;;8.85;83.84;101195.50;5007721;28;20030;-85
2021/05/25 04:52:47;;;;;;;18.17;4.32;;;;;;;8.83;83.61;101201.00;5019318;28;20024;-84
2021/05/25 04:55:15;;;;;;;13.68;5.00;;;;;;;8.67;83.59;101163.31;5016740;28;20397;-84
2021/05/25 04:57:41;;;;;;;18.98;5.25;;;;;;;8.91;83.27;101201.06;5015258;28;20491;-83
2021/05/25 05:00:09;;;;;;;17.05;4.40;;;;;;;8.87;83.19;101191.66;5017159;28;20123;-84
2021/05/25 05:02:35;;;;;;;20.60;4.93;;;;;;;8.92;83.10;101201.94;5018705;28;20026;-84
2021/05/25 05:05:00;;;;;;;14.05;3.85;;;;;;;8.89;83.07;101203.09;4999231;28;20060;-85
2021/05/25 05:07:26;;;;;;;19.38;4.65;;;;;;;8.83;83.32;101189.44;5017533;28;20489;-85
2021/05/25 05:09:51;;;;;;;22.65;4.63;;;;;;;8.71;83.07;101175.44;5013748;28;20022;-85
2021/05/25 05:12:17;;;;;;;15.05;4.63;;;;;;;8.86;82.55;101207.91;5011656;28;20026;-84
2021/05/25 05:14:42;;;;;;;10.73;4.38;;;;;;;8.84;82.71;101199.16;5021040;28;20021;-85
2021/05/25 05:17:07;;;;;;;13.55;4.40;;;;;;;8.85;83.04;101201.69;5015272;28;20030;-85
2021/05/25 05:19:33;;;;;;;12.85;3.97;;;;;;;8.83;83.04;101195.63;5022973;28;20038;-85
2021/05/25 05:21:58;;;;;;;12.38;4.68;;;;;;;8.87;83.06;101199.72;5007895;28;20083;-84
2021/05/25 05:24:24;;;;;;;15.57;4.00;;;;;;;8.75;82.67;101174.94;5016891;28;20033;-84
2021/05/25 05:26:49;;;;;;;19.98;4.88;;;;;;;8.84;82.81;101188.44;5005253;28;20159;-85
2021/05/25 05:29:15;;;;;;;14.32;4.72;;;;;;;8.93;82.56;101201.75;5018307;28;20025;-85
2021/05/25 05:31:40;;;;;;;15.65;5.07;;;;;;;8.95;82.45;101201.63;5013313;28;20030;-85
2021/05/25 05:34:06;;;;;;;21.75;5.15;;;;;;;8.95;82.69;101201.63;5011337;28;20463;-85
2021/05/25 05:36:32;;;;;;;15.05;5.45;;;;;;;8.94;82.62;101200.75;5020198;28;20028;-85
2021/05/25 05:38:57;;;;;;;18.33;4.97;;;;;;;9.02;82.65;101208.03;5015471;28;20494;-84
2021/05/25 05:41:23;;;;;;;14.75;3.97;;;;;;;9.03;82.64;101215.94;5004571;28;20060;-85
2021/05/25 05:43:48;;;;;;;11.40;4.70;;;;;;;9.03;82.74;101215.09;5016616;28;20129;-85
2021/05/25 05:46:15;;;;;;;15.93;5.10;;;;;;;9.03;82.38;101204.38;5016988;28;20502;-85
2021/05/25 05:48:41;;;;;;;14.30;4.55;;;;;;;9.05;82.74;101215.81;4999434;28;20041;-85
2021/05/25 05:51:06;;;;;;;16.25;4.65;;;;;;;9.05;83.00;101212.25;5033285;28;20103;-85
2021/05/25 05:53:32;;;;;;;20.27;4.78;;;;;;;9.09;82.93;101208.28;5021218;28;20022;-85
2021/05/25 05:55:57;;;;;;;13.50;4.60;;;;;;;9.05;82.85;101196.16;5015077;28;20026;-85
2021/05/25 05:58:22;;;;;;;12.02;3.90;;;;;;;9.02;82.88;101202.66;5017436;28;20426;-85
2021/05/25 06:00:48;;;;;;;12.20;3.92;;;;;;;9.04;83.54;101211.41;5017845;28;20021;-85
2021/05/25 06:03:13;;;;;;;17.58;4.45;;;;;;;8.98;83.78;101201.31;5002527;28;20260;-84
2021/05/25 06:05:39;;;;;;;18.08;4.90;;;;;;;8.98;83.97;101212.03;5002993;28;20484;-84
2021/05/25 06:08:07;;;;;;;18.17;4.80;;;;;;;8.92;84.55;101210.00;5012231;28;20087;-84
2021/05/25 06:10:35;;;;;;;15.68;4.25;;;;;;;8.95;84.68;101212.34;5015289;28;20022;-84
2021/05/25 06:13:00;;;;;;;16.08;4.70;;;;;;;8.92;84.67;101210.81;4999713;28;20168;-84
2021/05/25 06:15:26;;;;;;;24.15;6.00;;;;;;;8.92;84.51;101202.78;5019336;28;20104;-85
2021/05/25 06:17:52;;;;;;;12.77;4.57;;;;;;;8.88;84.74;101204.06;5015785;28;20030;-85
2021/05/25 06:20:18;;;;;;;14.40;4.53;;;;;;;8.91;85.14;101219.84;5012816;28;20025;-85
2021/05/25 06:22:43;;;;;;;14.88;4.53;;;;;;;8.91;85.64;101216.31;5019125;28;20022;-85
2021/05/25 06:25:10;;;;;;;18.92;5.28;;;;;;;8.91;85.38;101225.22;5006267;28;20036;-86
2021/05/25 06:27:36;;;;;;;15.18;4.80;;;;;;;8.91;85.65;101219.84;5012559;28;20505;-84
2021/05/25 06:30:04;;;;;;;13.82;5.35;;;;;;;8.95;86.14;101217.72;5021419;28;20025;-84
2021/05/25 06:32:29;;;;;;;15.15;5.43;;;;;;;8.89;86.01;101208.44;5015235;28;20050;-84
2021/05/25 06:34:55;;;;;;;15.15;5.82;;;;;;;8.94;86.29;101214.16;5000507;28;20018;-83
2021/05/25 06:37:20;;;;;;;15.60;4.43;;;;;;;8.98;86.24;101223.59;5010174;28;20021;-85
2021/05/25 06:39:46;;;;;;;12.80;4.53;;;;;;;9.03;86.35;101209.75;5010773;28;20021;-84
2021/05/25 06:42:11;;;;;;;15.27;5.35;;;;;;;9.00;86.63;101207.38;5012345;28;20049;-85
2021/05/25 06:44:37;;;;;;;14.18;5.03;;;;;;;8.89;86.34;101187.00;5013129;28;20026;-84
2021/05/25 06:47:03;;;;;;;13.85;4.93;;;;;;;9.10;86.60;101207.25;5013981;28;20026;-84
2021/05/25 06:49:28;;;;;;;14.65;5.05;;;;;;;9.10;86.24;101207.25;5027375;28;20033;-84
2021/05/25 06:51:54;;;;;;;17.10;4.93;;;;;;;9.20;86.20;101214.22;5012563;28;20092;-84
2021/05/25 06:54:19;;;;;;;16.83;5.00;;;;;;;9.23;86.53;101210.38;4965553;28;1237036;-85
2021/05/25 06:56:45;;;;;;;16.73;6.18;;;;;;;9.22;86.33;101217.59;5023827;28;20112;-85
2021/05/25 06:59:10;;;;;;;16.95;5.05;;;;;;;9.12;86.39;101214.16;5021497;28;20036;-85
2021/05/25 07:01:36;;;;;;;13.15;5.25;;;;;;;9.15;86.29;101208.47;5009401;28;20465;-85
2021/05/25 07:04:01;;;;;;;21.02;6.38;;;;;;;9.27;86.87;101222.50;5007647;28;20022;-85
2021/05/25 07:06:27;;;;;;;18.85;5.15;;;;;;;9.24;86.66;101206.72;5022763;28;20057;-85
2021/05/25 07:08:52;;;;;;;12.00;4.43;;;;;;;9.36;86.88;101215.34;5008102;28;20026;-86
2021/05/25 07:11:18;;;;;;;17.08;5.13;;;;;;;9.32;86.62;101204.09;5009833;28;20033;-85
2021/05/25 07:13:43;;;;;;;15.13;4.97;;;;;;;9.42;86.99;101223.63;5009218;28;20025;-85
2021/05/25 07:16:10;;;;;;;24.08;5.50;;;;;;;9.38;86.53;101213.38;5012900;28;20056;-84
2021/05/25 07:18:36;;;;;;;16.02;6.15;;;;;;;9.48;86.73;101224.84;5017666;28;20038;-85
2021/05/25 07:21:01;;;;;;;13.10;4.82;;;;;;;9.47;86.71;101223.13;5015331;28;20370;-84
2021/05/25 07:23:27;;;;;;;20.05;5.95;;;;;;;9.53;86.63;101230.59;4999855;28;20358;-85
2021/05/25 07:25:52;;;;;;;16.63;5.70;;;;;;;9.49;86.33;101221.16;5028898;28;20025;-84
2021/05/25 07:28:18;;;;;;;14.45;5.60;;;;;;;9.43;86.15;101213.75;5005145;28;20040;-84
2021/05/25 07:30:44;;;;;;;17.48;5.47;;;;;;;9.56;85.91;101232.13;5018185;28;20022;-84
2021/05/25 07:33:09;;;;;;;16.08;5.18;;;;;;;9.53;86.31;101219.84;5014576;28;20046;-85
2021/05/25 07:35:35;;;;;;;15.18;5.28;;;;;;;9.60;86.23;101230.78;5017602;28;20022;-85
2021/05/25 07:38:00;;;;;;;22.30;6.30;;;;;;;9.48;85.66;101207.91;5021739;28;20021;-85
2021/05/25 07:40:26;;;;;;;17.42;4.60;;;;;;;9.61;85.55;101214.53;5014441;28;20119;-85
2021/05/25 07:42:51;;;;;;;18.13;5.03;;;;;;;9.71;85.59;101217.09;5007369;28;20106;-85
2021/05/25 07:45:17;;;;;;;16.63;5.00;;;;;;;9.74;85.49;101213.25;5013921;28;20018;-85
2021/05/25 07:47:43;;;;;;;10.80;4.72;;;;;;;9.85;85.22;101221.03;5018679;28;20400;-85
2021/05/25 07:50:15;;;;;;;15.43;5.30;;;;;;;9.90;85.03;101219.56;5009727;28;20026;-85
2021/05/25 07:52:43;;;;;;;19.00;4.93;;;;;;;9.98;84.63;101217.94;5007062;28;20034;-85
2021/05/25 07:55:09;;;;;;;15.15;5.72;;;;;;;10.07;84.80;101227.69;5010622;28;20026;-85
2021/05/25 07:57:34;;;;;;;15.93;4.75;;;;;;;10.06;84.55;101218.78;5016260;28;20377;-85
2021/05/25 08:00:00;;;;;;;20.58;5.30;;;;;;;10.07;84.47;101215.09;5014037;28;20080;-85
2021/05/25 08:02:25;;;;;;;11.70;5.07;;;;;;;10.07;84.36;101212.41;5008449;28;20030;-85
2021/05/25 08:04:51;;;;;;;18.13;5.22;;;;;;;10.06;83.87;101207.22;5008702;28;20029;-85
2021/05/25 08:07:16;;;;;;;19.05;4.78;;;;;;;10.14;84.40;101215.31;5000854;28;20030;-84
2021/05/25 08:09:41;;;;;;;13.38;4.50;;;;;;;10.03;84.62;101197.63;5011026;28;20033;-84
2021/05/25 08:12:07;;;;;;;12.35;4.50;;;;;;;10.07;84.89;101207.03;5010268;28;20026;-84
2021/05/25 08:20:17;;;;;;;9.48;3.97;;;;;;;10.00;84.59;101213.22;5025601;28;20164;-84
2021/05/25 08:22:45;;;;;;;15.00;4.88;;;;;;;10.04;84.80;101231.53;4995113;28;20032;-84
2021/05/25 08:25:11;;;;;;;17.73;5.00;;;;;;;9.99;84.86;101227.66;5010084;28;20026;-85
2021/05/25 08:27:37;;;;;;;15.60;5.25;;;;;;;9.80;84.92;101191.13;5010271;28;20029;-85
2021/05/25 08:30:07;;;;;;;10.60;4.40;;;;;;;10.03;84.71;101235.25;5003985;28;20032;-85
2021/05/25 08:32:32;;;;;;;17.33;6.13;;;;;;;9.90;84.38;101210.66;5010097;28;20108;-85
2021/05/25 08:34:58;;;;;;;8.73;5.45;;;;;;;10.01;84.16;101221.13;5010425;28;20120;-84
2021/05/25 08:37:23;;;;;;;13.60;5.22;;;;;;;10.09;84.16;101231.91;5010405;28;20053;-84
2021/05/25 08:39:49;;;;;;;10.55;3.95;;;;;;;10.02;83.84;101214.72;5007683;28;20087;-85
2021/05/25 08:42:14;;;;;;;11.00;4.13;;;;;;;10.08;83.75;101226.69;5008220;28;20092;-85
2021/05/25 08:44:39;;;;;;;14.82;4.03;;;;;;;10.05;83.73;101221.63;5019745;28;20030;-85
2021/05/25 08:47:06;;;;;;;7.93;3.63;;;;;;;10.12;83.49;101233.44;5013168;28;20573;-85
2021/05/25 08:49:36;;;;;;;9.68;3.38;;;;;;;10.11;83.61;101219.16;5011714;28;20066;-84
2021/05/25 08:52:05;;;;;;;8.30;3.03;;;;;;;10.21;83.50;101227.06;5014200;28;20033;-83
2021/05/25 08:54:31;;;;;;;11.82;3.53;;;;;;;10.25;83.12;101222.22;4996723;28;20202;-85
2021/05/25 08:56:56;;;;;;;10.07;2.95;;;;;;;10.33;82.51;101225.81;5001201;28;20469;-85
2021/05/25 08:59:22;;;;;;;9.15;3.10;;;;;;;10.32;82.21;101216.06;5022541;28;20534;-84
2021/05/25 09:01:49;;;;;;;9.88;3.45;;;;;;;10.18;81.89;101191.63;5014187;28;20026;-85
2021/05/25 09:04:15;;;;;;;11.40;2.88;;;;;;;10.29;81.53;101191.34;5014930;28;20026;-83
2021/05/25 09:06:46;;;;;;;7.80;2.50;;;;;;;10.62;81.08;101234.47;5007122;28;20022;-83
2021/05/25 09:09:14;;;;;;;5.07;2.00;;;;;;;10.69;80.50;101235.47;5008726;28;20032;-86
2021/05/25 09:11:57;;;;;;;5.75;2.00;;;;;;;10.68;79.28;101225.75;5027691;28;20053;-85
2021/05/25 09:14:23;;;;;;;;;;;;;;;10.70;78.38;101227.25;5016072;28;20045;-84
2021/05/25 09:16:48;;;;;;;7.88;2.17;;;;;;;10.71;78.54;101233.47;5025206;28;19913;-85
2021/05/25 09:19:14;;;;;;;5.70;2.08;;;;;;;10.67;78.53;101232.97;5009754;28;20014;-85
2021/05/25 09:21:39;;;;;;;10.27;2.85;;;;;;;10.70;77.81;101232.63;4990828;28;20025;-80
2021/05/25 09:24:05;;;;;;;11.35;2.63;;;;;;;10.70;77.30;101232.63;5014962;28;20034;-84
2021/05/25 09:26:40;;;;;;;9.90;2.25;;;;;;;10.74;77.82;101234.00;5011025;28;20026;-85
2021/05/25 09:29:07;;;;;;;6.70;2.42;;;;;;;10.71;77.41;101233.47;5015727;28;20109;-84
2021/05/25 09:31:39;;;;;;;9.30;3.15;;;;;;;10.73;77.26;101250.28;5009539;28;20022;-85
2021/05/25 09:34:21;;;;;;;4.13;2.30;;;;;;;10.64;77.26;101229.75;5019076;28;20026;-85
2021/05/25 09:37:08;;;;;;;9.48;2.70;;;;;;;10.77;77.28;101233.66;5012382;28;20026;-86
2021/05/25 09:39:40;;;;;;;7.10;2.97;;;;;;;10.88;77.92;101245.97;5010932;28;20397;-84
2021/05/25 09:42:07;;;;;;;10.80;3.60;;;;;;;10.92;77.90;101241.06;5022578;28;20060;-84
2021/05/25 09:44:36;;;;;;;7.15;2.00;;;;;;;10.93;78.35;101235.53;5012163;28;20054;-84
2021/05/25 09:47:04;;;;;;;7.10;2.50;;;;;;;10.99;77.94;101225.97;5002864;28;20021;-84
2021/05/25 09:49:30;;;;;;;6.75;2.00;;;;;;;11.10;76.87;101232.84;5008243;28;20064;-84
2021/05/25 09:52:10;;;;;;;10.32;4.15;;;;;;;11.14;76.94;101228.81;5010950;28;20026;-84
2021/05/25 09:54:36;;;;;;;10.07;3.33;;;;;;;11.13;76.48;101227.97;5003273;28;20064;-84
2021/05/25 09:57:04;;;;;;;8.77;2.53;;;;;;;11.08;76.49;101227.63;4994738;28;20101;-84
2021/05/25 09:59:40;;;;;;;6.50;2.15;;;;;;;11.20;75.81;101225.47;5010356;28;20045;-85
2021/05/25 10:02:20;;;;;;;9.02;2.00;;;;;;;11.37;74.41;101216.34;4990436;28;20196;-85
2021/05/25 10:05:07;;;;;;;3.08;1.77;;;;;;;11.70;73.25;101231.63;5025807;28;20025;-84
2021/05/25 10:07:36;;;;;;;4.13;1.55;;;;;;;11.68;71.84;101212.94;5018509;28;20030;-83
2021/05/25 10:10:04;;;;;;;3.20;1.55;;;;;;;11.87;70.62;101228.75;5012239;28;20109;-85
2021/05/25 10:12:30;;;;;;;14.57;3.30;;;;;;;11.83;71.35;101227.41;5014210;28;20022;-85
2021/05/25 10:14:59;;;;;;;7.68;2.05;;;;;;;11.79;72.55;101228.75;5015936;28;20014;-84
2021/05/25 10:20:16;;;;;;;4.82;1.63;;;;;;;11.94;72.35;101237.00;4998495;28;20437;-84
2021/05/25 10:22:42;;;;;;;4.10;2.20;;;;;;;11.99;72.39;101234.63;4996842;28;20057;-86
2021/05/25 10:25:11;;;;;;;6.47;2.42;;;;;;;12.02;72.80;101233.44;5019404;28;20798;-83
2021/05/25 10:27:36;;;;;;;4.35;1.73;;;;;;;11.90;72.66;101216.78;5013291;28;20033;-84
2021/05/25 10:30:03;;;;;;;5.82;2.10;;;;;;;11.71;73.24;101193.75;5013106;28;20029;-86
2021/05/25 10:32:28;;;;;;;5.53;2.20;;;;;;;11.97;73.20;101230.41;5016000;28;20076;-84
2021/05/25 10:34:54;;;;;;;6.22;2.22;;;;;;;11.94;72.34;101230.78;5017104;28;20029;-84
2021/05/25 10:37:21;;;;;;;7.60;2.55;;;;;;;11.88;71.53;101227.75;5012803;28;20057;-84
2021/05/25 10:39:52;;;;;;;6.78;2.50;;;;;;;11.84;72.18;101220.16;5015115;28;20481;-85
2021/05/25 10:42:21;;;;;;;8.13;2.55;;;;;;;12.07;72.89;101237.28;5017189;28;20504;-84
2021/05/25 10:44:47;;;;;;;3.85;1.85;;;;;;;12.04;72.39;101229.56;5019512;28;20392;-85
2021/05/25 10:47:23;;;;;;;6.80;2.10;;;;;;;11.98;72.37;101235.63;5020765;28;20026;-84
2021/05/25 10:49:55;;;;;;;4.75;2.22;;;;;;;12.09;71.19;101239.78;5012881;28;20018;-85
2021/05/25 10:52:22;;;;;;;8.27;2.53;;;;;;;12.12;71.10;101247.56;5014497;28;20021;-85
2021/05/25 10:54:52;;;;;;;2.95;1.75;;;;;;;12.19;70.80;101240.44;5016839;28;20018;-86
2021/05/25 10:57:53;;;;;;;7.65;2.17;;;;;;;12.21;70.76;101240.28;5013632;28;20038;-84
2021/05/25 11:00:29;;;;;;;7.87;2.20;;;;;;;12.23;70.06;101244.47;4993673;28;20097;-85
2021/05/25 11:02:55;;;;;;;6.88;2.60;;;;;;;12.14;71.13;101245.50;5010532;28;20029;-86
2021/05/25 11:05:36;;;;;;;6.25;2.15;;;;;;;12.07;71.90;101241.84;5013853;28;20075;-84
2021/05/25 11:08:26;;;;;;;7.53;2.53;;;;;;;12.19;72.83;101244.97;5016038;28;20064;-84
2021/05/25 11:11:03;;;;;;;3.25;1.60;;;;;;;12.36;71.85;101241.22;5007700;28;20028;-84
2021/05/25 11:13:30;;;;;;;4.97;2.00;;;;;;;12.40;71.27;101237.13;5011905;28;20053;-83
2021/05/25 11:16:13;;;;;;;5.22;2.00;;;;;;;12.32;71.50;101238.00;4998070;28;20425;-86
2021/05/25 11:18:54;;;;;;;6.32;2.10;;;;;;;12.32;71.43;101239.88;5014180;28;20018;-86
2021/05/25 11:24:37;;;;;;;4.95;1.63;;;;;;;13.06;67.91;101234.03;5015836;28;20373;-84
2021/05/25 11:27:13;;;;;;;6.63;1.88;;;;;;;13.44;66.73;101218.69;5008124;28;20041;-84
2021/05/25 11:30:14;;;;;;;6.70;2.97;;;;;;;13.76;66.44;101227.50;5007725;28;20044;-79
2021/05/25 11:32:45;;;;;;;5.65;2.40;;;;;;;13.68;66.52;101212.25;5008751;28;20021;-78
2021/05/25 11:35:25;;;;;;;6.85;3.03;;;;;;;13.36;65.33;101205.28;5008898;28;20017;-78
2021/05/25 11:37:56;;;;;;;7.45;3.67;;;;;;;13.32;66.53;101217.50;5005728;28;20033;-78